createdAt,value
2018-02-04T00:00:57.480Z,17.40
2018-02-04T00:03:25.682Z,19.03
2018-02-04T00:05:53.928Z,17.50
2018-02-04T00:08:22.319Z,18.10
2018-02-04T00:10:50.582Z,16.17
2018-02-04T00:13:18.921Z,16.63
2018-02-04T00:15:47.953Z,15.07
2018-02-04T00:18:16.156Z,16.07
2018-02-04T00:20:44.376Z,16.57
2018-02-04T00:23:12.676Z,18.93
2018-02-04T00:25:40.877Z,16.87
2018-02-04T00:28:09.105Z,17.50
2018-02-04T00:30:37.533Z,17.17
2018-02-04T00:33:05.895Z,19.37
2018-02-04T00:35:34.071Z,18.57
2018-02-04T00:38:02.319Z,17.80
2018-02-04T00:40:30.549Z,17.13
2018-02-04T00:42:58.864Z,19.10
2018-02-04T00:45:27.237Z,20.63
2018-02-04T00:47:56.277Z,18.87
2018-02-04T00:50:24.520Z,18.83
2018-02-04T00:52:53.500Z,19.20
2018-02-04T00:55:21.804Z,18.57
2018-02-04T00:57:50.049Z,22.03
2018-02-04T01:00:19.096Z,19.77
2018-02-04T01:02:47.406Z,20.70
2018-02-04T01:05:15.644Z,20.77
2018-02-04T01:07:43.941Z,21.37
2018-02-04T01:10:12.148Z,19.60
2018-02-04T01:12:41.193Z,21.10
2018-02-04T01:15:10.650Z,21.80
2018-02-04T01:17:39.644Z,19.80
2018-02-04T01:20:08.636Z,19.87
2018-02-04T01:22:37.631Z,19.10
2018-02-04T01:25:06.611Z,19.97
2018-02-04T01:27:35.609Z,20.53
2018-02-04T01:30:06.026Z,19.67
2018-02-04T01:32:34.237Z,19.20
2018-02-04T01:35:02.515Z,22.43
2018-02-04T01:37:30.804Z,19.80
2018-02-04T01:39:58.983Z,19.70
2018-02-04T01:42:27.206Z,22.77
2018-02-04T01:44:55.515Z,20.13
2018-02-04T01:47:23.731Z,21.77
2018-02-04T01:49:52.044Z,21.37
2018-02-04T01:52:21.288Z,18.83
2018-02-04T01:54:49.531Z,18.90
2018-02-04T01:57:18.508Z,20.73
2018-02-04T01:59:47.683Z,19.73
2018-02-04T02:02:15.880Z,18.33
2018-02-04T02:04:44.868Z,17.93
2018-02-04T02:07:15.128Z,18.83
2018-02-04T02:09:43.338Z,19.80
2018-02-04T02:12:11.561Z,18.10
2018-02-04T02:14:39.860Z,18.70
2018-02-04T02:17:08.085Z,20.53
2018-02-04T02:19:37.092Z,19.57
2018-02-04T02:22:05.383Z,19.17
2018-02-04T02:24:34.346Z,19.17
2018-02-04T02:27:02.562Z,18.97
2018-02-04T02:29:31.108Z,17.77
2018-02-04T02:32:00.107Z,18.87
2018-02-04T02:34:29.118Z,18.60
2018-02-04T02:36:57.362Z,17.87
2018-02-04T02:39:25.591Z,18.37
2018-02-04T02:41:53.896Z,18.10
2018-02-04T02:44:22.248Z,17.17
2018-02-04T02:46:50.470Z,17.80
2018-02-04T02:49:18.669Z,17.93
2018-02-04T02:51:47.668Z,17.70
2018-02-04T02:54:15.886Z,17.00
2018-02-04T02:56:44.097Z,17.67
2018-02-04T02:59:13.123Z,17.40
2018-02-04T03:01:41.332Z,18.40
2018-02-04T03:04:09.538Z,18.53
2018-02-04T03:06:38.556Z,17.53
2018-02-04T03:09:07.719Z,17.23
2018-02-04T03:11:35.916Z,18.43
2018-02-04T03:14:04.908Z,18.37
2018-02-04T03:16:33.906Z,19.93
2018-02-04T03:19:02.872Z,16.00
2018-02-04T03:21:31.101Z,17.37
2018-02-04T03:23:59.352Z,18.83
2018-02-04T03:26:28.320Z,18.83
2018-02-04T03:28:56.589Z,18.13
2018-02-04T03:31:24.813Z,17.83
2018-02-04T03:33:53.764Z,18.43
2018-02-04T03:36:22.021Z,20.23
2018-02-04T03:38:50.252Z,19.77
2018-02-04T03:41:18.470Z,19.97
2018-02-04T03:43:47.919Z,19.30
2018-02-04T03:46:16.900Z,20.13
2018-02-04T03:48:45.897Z,20.43
2018-02-04T03:51:14.880Z,18.63
2018-02-04T03:53:43.849Z,19.63
2018-02-04T03:56:12.114Z,17.37
2018-02-04T03:58:40.340Z,18.70
2018-02-04T04:01:09.336Z,19.40
2018-02-04T04:03:38.306Z,19.97
2018-02-04T04:06:06.572Z,20.33
2018-02-04T04:08:34.900Z,20.60
2018-02-04T04:11:03.116Z,19.30
2018-02-04T04:13:31.377Z,20.27
2018-02-04T04:15:59.595Z,19.97
2018-02-04T04:18:28.592Z,22.00
2018-02-04T04:20:57.599Z,20.43
2018-02-04T04:23:25.813Z,18.53
2018-02-04T04:25:54.144Z,20.03
2018-02-04T04:28:23.212Z,19.00
2018-02-04T04:30:51.692Z,19.90
2018-02-04T04:33:19.900Z,21.00
2018-02-04T04:35:48.132Z,16.80
2018-02-04T04:38:16.328Z,17.87
2018-02-04T04:40:44.544Z,19.53
2018-02-04T04:43:13.558Z,20.57
2018-02-04T04:45:42.554Z,21.27
2018-02-04T04:48:10.769Z,19.57
2018-02-04T04:50:39.028Z,20.27
2018-02-04T04:53:07.230Z,19.33
2018-02-04T04:55:35.600Z,19.00
2018-02-04T04:58:03.877Z,19.23
2018-02-04T05:00:32.283Z,20.83
2018-02-04T05:03:00.459Z,18.13
2018-02-04T05:05:29.574Z,19.50
2018-02-04T05:07:57.785Z,19.50
2018-02-04T05:10:26.000Z,18.53
2018-02-04T05:12:55.481Z,18.43
2018-02-04T05:15:23.706Z,19.90
2018-02-04T05:17:51.908Z,20.17
2018-02-04T05:20:20.212Z,20.07
2018-02-04T05:22:48.528Z,20.90
2018-02-04T05:25:16.822Z,19.90
2018-02-04T05:27:45.280Z,20.63
2018-02-04T05:30:14.309Z,20.83
2018-02-04T05:32:42.522Z,19.33
2018-02-04T05:35:10.968Z,19.67
2018-02-04T05:37:39.224Z,19.93
2018-02-04T05:40:07.508Z,19.67
2018-02-04T05:42:35.798Z,18.70
2018-02-04T05:45:04.851Z,18.77
2018-02-04T05:47:33.896Z,19.63
2018-02-04T05:50:02.148Z,19.60
2018-02-04T05:52:30.353Z,18.07
2018-02-04T05:54:58.581Z,19.90
2018-02-04T05:57:26.852Z,20.20
2018-02-04T05:59:55.875Z,17.53
2018-02-04T06:02:24.144Z,17.63
2018-02-04T06:04:52.400Z,19.27
2018-02-04T06:07:21.400Z,19.10
2018-02-04T06:09:49.592Z,19.43
2018-02-04T06:12:17.844Z,18.90
2018-02-04T06:14:46.061Z,19.80
2018-02-04T06:17:14.364Z,19.73
2018-02-04T06:19:42.672Z,18.73
2018-02-04T06:22:11.670Z,17.37
2018-02-04T06:24:40.652Z,21.60
2018-02-04T06:27:09.696Z,19.57
2018-02-04T06:29:37.921Z,19.00
2018-02-04T06:32:06.937Z,21.77
2018-02-04T06:34:35.977Z,21.23
2018-02-04T06:37:04.282Z,21.73
2018-02-04T06:39:33.293Z,24.47
2018-02-04T06:42:01.673Z,21.73
2018-02-04T06:44:29.879Z,23.73
2018-02-04T06:46:58.129Z,23.97
2018-02-04T06:49:26.421Z,21.80
2018-02-04T06:51:54.618Z,22.63
2018-02-04T06:54:22.857Z,23.27
2018-02-04T06:56:51.177Z,24.53
2018-02-04T06:59:21.785Z,24.40
2018-02-04T07:01:50.016Z,24.23
2018-02-04T07:04:19.111Z,21.77
2018-02-04T07:06:47.281Z,25.10
2018-02-04T07:09:17.018Z,24.17
2018-02-04T07:11:45.320Z,23.53
2018-02-04T07:14:14.312Z,22.50
2018-02-04T07:16:42.538Z,23.73
2018-02-04T07:19:10.788Z,21.67
2018-02-04T07:21:39.096Z,22.60
2018-02-04T07:24:07.383Z,23.47
2018-02-04T07:26:35.657Z,23.20
2018-02-04T07:29:03.870Z,24.80
2018-02-04T07:31:32.088Z,24.27
2018-02-04T07:34:00.316Z,23.97
2018-02-04T07:36:28.556Z,22.13
2018-02-04T07:38:56.761Z,23.97
2018-02-04T07:41:25.009Z,24.20
2018-02-04T07:43:53.340Z,24.47
2018-02-04T07:46:21.590Z,22.53
2018-02-04T07:48:49.839Z,27.23
2018-02-04T07:51:18.817Z,24.50
2018-02-04T07:53:47.824Z,25.47
2018-02-04T07:56:16.833Z,27.23
2018-02-04T07:58:45.191Z,25.03
2018-02-04T08:01:14.269Z,22.93
2018-02-04T08:03:42.564Z,27.60
2018-02-04T08:06:11.705Z,25.87
2018-02-04T08:08:39.926Z,28.37
2018-02-04T08:11:08.941Z,28.13
2018-02-04T08:13:37.192Z,28.30
2018-02-04T08:16:06.178Z,27.73
2018-02-04T08:18:34.454Z,28.43
2018-02-04T08:21:02.669Z,28.90
2018-02-04T08:23:30.926Z,26.00
2018-02-04T08:25:59.392Z,26.47
2018-02-04T08:28:28.384Z,25.67
2018-02-04T08:30:57.393Z,26.93
2018-02-04T08:33:26.447Z,24.17
2018-02-04T08:35:54.742Z,27.00
2018-02-04T08:38:22.940Z,27.33
2018-02-04T08:40:51.956Z,25.50
2018-02-04T08:43:20.321Z,25.87
2018-02-04T08:45:49.288Z,25.33
2018-02-04T08:48:17.536Z,28.67
2018-02-04T08:50:45.748Z,29.27
2018-02-04T08:53:14.835Z,28.07
2018-02-04T08:55:43.344Z,25.90
2018-02-04T08:58:11.565Z,28.03
2018-02-04T09:00:39.761Z,30.33
2018-02-04T09:03:07.989Z,28.13
2018-02-04T09:05:36.255Z,26.83
2018-02-04T09:08:05.206Z,27.97
2018-02-04T09:10:33.452Z,29.10
2018-02-04T09:13:01.653Z,29.03
2018-02-04T09:15:29.942Z,28.80
2018-02-04T09:17:58.952Z,29.10
2018-02-04T09:20:27.925Z,28.83
2018-02-04T09:22:56.128Z,25.57
2018-02-04T09:25:24.381Z,26.67
2018-02-04T09:27:52.598Z,23.63
2018-02-04T09:30:20.826Z,26.53
2018-02-04T09:32:49.061Z,25.40
2018-02-04T09:35:17.320Z,28.23
2018-02-04T09:37:45.541Z,27.57
2018-02-04T09:40:13.784Z,30.20
2018-02-04T09:42:42.016Z,27.93
2018-02-04T09:45:10.992Z,28.20
2018-02-04T09:47:39.316Z,28.37
2018-02-04T09:50:07.594Z,28.43
2018-02-04T09:52:35.802Z,29.63
2018-02-04T09:55:04.053Z,26.53
2018-02-04T09:57:33.052Z,28.73
2018-02-04T10:00:01.259Z,29.17
2018-02-04T10:02:29.580Z,29.13
2018-02-04T10:04:57.932Z,24.77
2018-02-04T10:07:26.120Z,24.10
2018-02-04T10:09:55.220Z,24.60
2018-02-04T10:12:23.473Z,26.90
2018-02-04T10:14:52.469Z,26.93
2018-02-04T10:17:21.514Z,28.50
2018-02-04T10:19:49.716Z,28.03
2018-02-04T10:22:17.916Z,28.50
2018-02-04T10:24:46.337Z,26.60
2018-02-04T10:27:14.600Z,26.97
2018-02-04T10:29:42.811Z,24.73
2018-02-04T10:32:11.050Z,28.57
2018-02-04T10:34:39.313Z,27.80
2018-02-04T10:39:43.292Z,29.00
2018-02-04T10:42:11.492Z,29.87
2018-02-04T10:44:40.527Z,27.90
2018-02-04T10:47:08.782Z,27.73
2018-02-04T10:49:37.001Z,27.13
2018-02-04T10:52:05.196Z,26.33
2018-02-04T10:54:33.429Z,25.33
2018-02-04T10:57:01.612Z,26.53
2018-02-04T10:59:29.820Z,23.93
2018-02-04T11:01:58.064Z,25.70
2018-02-04T11:04:26.359Z,27.53
2018-02-04T11:06:55.748Z,26.90
2018-02-04T11:09:23.975Z,27.10
2018-02-04T11:11:53.060Z,27.47
2018-02-04T11:14:21.372Z,24.03
2018-02-04T11:16:49.615Z,25.47
2018-02-04T11:19:18.588Z,24.87
2018-02-04T11:21:46.797Z,26.33
2018-02-04T11:24:15.849Z,25.07
2018-02-04T11:26:44.060Z,27.83
2018-02-04T11:29:13.025Z,25.83
2018-02-04T11:31:41.308Z,22.73
2018-02-04T11:36:51.054Z,28.23
2018-02-04T11:39:19.328Z,24.63
2018-02-04T11:41:47.521Z,26.50
2018-02-04T11:44:15.776Z,25.20
2018-02-04T11:46:44.031Z,25.67
2018-02-04T11:49:12.182Z,24.83
2018-02-04T11:51:40.459Z,26.17
2018-02-04T11:54:08.697Z,25.10
2018-02-04T11:56:36.910Z,24.30
2018-02-04T11:59:05.248Z,23.83
2018-02-04T12:01:33.718Z,23.60
2018-02-04T12:04:02.084Z,23.90
2018-02-04T12:06:31.113Z,24.27
2018-02-04T12:08:59.329Z,24.57
2018-02-04T12:11:27.528Z,28.30
2018-02-04T12:13:55.803Z,25.00
2018-02-04T12:16:24.000Z,22.77
2018-02-04T12:18:52.298Z,23.43
2018-02-04T12:21:20.612Z,23.63
2018-02-04T12:23:48.928Z,24.57
2018-02-04T12:26:17.178Z,25.70
2018-02-04T12:28:45.431Z,25.63
2018-02-04T12:31:13.643Z,27.13
2018-02-04T12:33:41.862Z,23.77
2018-02-04T12:36:10.904Z,25.73
2018-02-04T12:38:39.260Z,25.50
2018-02-04T12:41:08.276Z,23.73
2018-02-04T12:43:36.545Z,25.37
2018-02-04T12:46:05.607Z,24.93
2018-02-04T12:48:34.568Z,27.10
2018-02-04T12:51:02.829Z,26.83
2018-02-04T12:53:31.186Z,25.60
2018-02-04T12:56:00.104Z,27.60
2018-02-04T12:58:28.802Z,26.40
2018-02-04T13:00:57.238Z,26.40
2018-02-04T13:03:26.380Z,27.00
2018-02-04T13:05:54.728Z,27.47
2018-02-04T13:08:22.992Z,24.63
2018-02-04T13:10:53.453Z,26.97
2018-02-04T13:13:21.901Z,25.43
2018-02-04T13:15:51.013Z,25.03
2018-02-04T13:18:19.706Z,23.17
2018-02-04T13:20:48.919Z,25.07
2018-02-04T13:23:17.157Z,24.23
2018-02-04T13:25:46.120Z,24.90
2018-02-04T13:28:14.363Z,22.83
2018-02-04T13:30:42.578Z,21.93
2018-02-04T13:33:10.779Z,22.90
2018-02-04T13:35:39.780Z,25.80
2018-02-04T13:38:08.011Z,24.93
2018-02-04T13:40:36.244Z,28.10
2018-02-04T13:43:04.542Z,25.47
2018-02-04T13:45:32.769Z,24.67
2018-02-04T13:48:01.809Z,23.60
2018-02-04T13:50:30.071Z,29.00
2018-02-04T13:52:58.264Z,25.20
2018-02-04T13:55:26.489Z,24.73
2018-02-04T13:57:54.758Z,21.63
2018-02-04T14:00:23.760Z,22.17
2018-02-04T14:02:52.849Z,20.77
2018-02-04T14:05:21.926Z,24.57
2018-02-04T14:07:50.544Z,23.17
2018-02-04T14:10:18.889Z,21.60
2018-02-04T14:12:47.208Z,22.23
2018-02-04T14:15:15.505Z,23.47
2018-02-04T14:17:43.744Z,23.13
2018-02-04T14:20:12.007Z,24.80
2018-02-04T14:22:41.009Z,24.60
2018-02-04T14:25:09.994Z,23.30
2018-02-04T14:27:39.002Z,22.40
2018-02-04T14:30:07.233Z,21.90
2018-02-04T14:32:36.266Z,23.50
2018-02-04T14:35:05.296Z,22.90
2018-02-04T14:37:33.541Z,24.50
2018-02-04T14:40:01.769Z,22.87
2018-02-04T14:42:30.001Z,24.90
2018-02-04T14:44:58.254Z,23.87
2018-02-04T14:47:27.216Z,20.43
2018-02-04T14:49:55.491Z,24.63
2018-02-04T14:52:23.701Z,21.70
2018-02-04T14:54:51.921Z,22.60
2018-02-04T14:57:20.220Z,23.47
2018-02-04T14:59:48.476Z,22.13
2018-02-04T15:02:16.740Z,21.47
2018-02-04T15:04:44.970Z,22.13
2018-02-04T15:07:13.192Z,24.67
2018-02-04T15:09:41.644Z,23.43
2018-02-04T15:12:10.109Z,24.53
2018-02-04T15:14:39.892Z,27.47
2018-02-04T15:17:08.148Z,50.33
2018-02-04T15:19:36.433Z,25.30
2018-02-04T15:22:04.628Z,21.70
2018-02-04T15:24:32.881Z,24.10
2018-02-04T15:27:01.226Z,22.93
2018-02-04T15:29:29.456Z,22.87
2018-02-04T15:31:57.652Z,22.63
2018-02-04T15:34:26.032Z,23.40
2018-02-04T15:36:54.383Z,24.30
2018-02-04T15:39:22.571Z,21.37
2018-02-04T15:41:51.097Z,24.20
2018-02-04T15:44:19.317Z,23.33
2018-02-04T15:46:47.527Z,24.73
2018-02-04T15:49:16.556Z,23.83
2018-02-04T15:51:44.780Z,23.63
2018-02-04T15:54:13.824Z,22.50
2018-02-04T15:56:42.152Z,23.37
2018-02-04T15:59:11.163Z,23.73
2018-02-04T16:01:39.407Z,25.17
2018-02-04T16:04:07.655Z,25.70
2018-02-04T16:06:35.841Z,23.97
2018-02-04T16:09:04.190Z,25.83
2018-02-04T16:11:32.540Z,26.43
2018-02-04T16:14:01.504Z,25.43
2018-02-04T16:16:29.732Z,26.60
2018-02-04T16:18:58.168Z,25.77
2018-02-04T16:21:26.378Z,25.33
2018-02-04T16:23:54.605Z,29.07
2018-02-04T16:26:22.933Z,31.87
2018-02-04T16:28:51.143Z,32.30
2018-02-04T16:31:19.383Z,31.83
2018-02-04T16:33:47.640Z,34.20
2018-02-04T16:36:16.612Z,28.93
2018-02-04T16:38:44.839Z,31.83
2018-02-04T16:41:13.905Z,30.73
2018-02-04T16:43:42.920Z,28.53
2018-02-04T16:46:11.232Z,31.23
2018-02-04T16:48:39.458Z,28.90
2018-02-04T16:51:08.484Z,30.20
2018-02-04T16:53:36.771Z,30.20
2018-02-04T16:56:06.032Z,29.27
2018-02-04T16:58:34.256Z,29.70
2018-02-04T17:01:02.508Z,32.63
2018-02-04T17:03:30.812Z,29.57
2018-02-04T17:05:59.464Z,27.73
2018-02-04T17:08:27.657Z,29.40
2018-02-04T17:10:56.077Z,28.20
2018-02-04T17:13:25.083Z,28.93
2018-02-04T17:15:54.093Z,30.33
2018-02-04T17:18:22.492Z,27.30
2018-02-04T17:20:50.772Z,26.53
2018-02-04T17:23:19.235Z,27.07
2018-02-04T17:25:49.909Z,29.37
2018-02-04T17:28:19.590Z,27.30
2018-02-04T17:30:48.396Z,27.83
2018-02-04T17:33:17.448Z,28.83
2018-02-04T17:35:45.676Z,27.07
2018-02-04T17:38:13.958Z,30.57
2018-02-04T17:43:11.197Z,29.10
2018-02-04T17:45:39.397Z,29.97
2018-02-04T17:48:07.728Z,29.57
2018-02-04T17:50:36.720Z,27.13
2018-02-04T17:53:05.008Z,27.53
2018-02-04T17:55:33.268Z,28.90
2018-02-04T17:58:02.383Z,35.93
2018-02-04T18:00:30.661Z,31.20
2018-02-04T18:02:59.165Z,30.10
2018-02-04T18:05:27.476Z,29.17
2018-02-04T18:07:55.688Z,28.73
2018-02-04T18:10:24.143Z,30.57
2018-02-04T18:12:52.432Z,27.57
2018-02-04T18:15:21.472Z,28.73
2018-02-04T18:17:49.680Z,29.10
2018-02-04T18:20:18.712Z,25.20
2018-02-04T18:22:46.993Z,26.83
2018-02-04T18:25:15.239Z,27.43
2018-02-04T18:27:43.527Z,27.23
2018-02-04T18:30:12.489Z,25.70
2018-02-04T18:32:40.697Z,26.27
2018-02-04T18:35:09.797Z,24.67
2018-02-04T18:37:38.796Z,25.93
2018-02-04T18:40:07.008Z,22.80
2018-02-04T18:42:35.244Z,24.30
2018-02-04T18:45:03.501Z,26.07
2018-02-04T18:47:31.705Z,24.27
2018-02-04T18:50:01.358Z,25.23
2018-02-04T18:52:29.554Z,25.53
2018-02-04T18:54:58.009Z,25.53
2018-02-04T18:57:26.267Z,24.53
2018-02-04T18:59:54.476Z,25.77
2018-02-04T19:02:22.680Z,25.00
2018-02-04T19:04:50.917Z,23.33
2018-02-04T19:07:19.152Z,23.67
2018-02-04T19:09:48.093Z,23.30
2018-02-04T19:12:16.414Z,22.47
2018-02-04T19:14:44.609Z,22.77
2018-02-04T19:17:12.948Z,23.60
2018-02-04T19:19:41.980Z,23.90
2018-02-04T19:22:10.250Z,23.13
2018-02-04T19:24:38.638Z,25.90
2018-02-04T19:27:06.982Z,23.10
2018-02-04T19:29:35.957Z,24.13
2018-02-04T19:32:04.975Z,23.43
2018-02-04T19:34:33.985Z,22.93
2018-02-04T19:37:02.897Z,22.50
2018-02-04T19:39:31.108Z,23.20
2018-02-04T19:41:59.459Z,23.43
2018-02-04T19:44:27.743Z,23.73
2018-02-04T19:46:56.045Z,24.60
2018-02-04T19:49:24.304Z,25.40
2018-02-04T19:51:52.585Z,23.50
2018-02-04T19:54:20.830Z,23.83
2018-02-04T19:56:49.109Z,22.80
2018-02-04T19:59:17.354Z,23.20
2018-02-04T20:01:46.369Z,23.87
2018-02-04T20:04:14.605Z,23.47
2018-02-04T20:06:42.824Z,23.50
2018-02-04T20:09:11.124Z,25.07
2018-02-04T20:11:40.421Z,27.23
2018-02-04T20:14:08.725Z,30.53
2018-02-04T20:16:37.176Z,27.57
2018-02-04T20:19:05.538Z,28.13
2018-02-04T20:21:33.862Z,25.07
2018-02-04T20:24:03.025Z,24.30
2018-02-04T20:26:32.804Z,24.73
2018-02-04T20:29:01.312Z,26.57
2018-02-04T20:31:30.420Z,28.47
2018-02-04T20:34:11.306Z,30.77
2018-02-04T20:36:39.760Z,27.67
2018-02-04T20:39:08.057Z,25.47
2018-02-04T20:41:37.168Z,26.03
2018-02-04T20:44:05.392Z,26.70
2018-02-04T20:46:33.565Z,25.57
2018-02-04T20:49:01.863Z,24.93
2018-02-04T20:51:30.839Z,26.67
2018-02-04T20:53:59.132Z,27.67
2018-02-04T20:56:27.544Z,28.77
2018-02-04T20:58:55.984Z,27.63
2018-02-04T21:01:24.304Z,27.17
2018-02-04T21:03:52.556Z,27.60
2018-02-04T21:06:23.091Z,28.20
2018-02-04T21:08:51.356Z,29.83
2018-02-04T21:11:20.468Z,29.63
2018-02-04T21:13:48.696Z,28.93
2018-02-04T21:16:17.773Z,25.47
2018-02-04T21:18:46.069Z,31.53
2018-02-04T21:21:14.336Z,28.70
2018-02-04T21:23:42.567Z,26.30
2018-02-04T21:26:11.624Z,30.20
2018-02-04T21:28:39.927Z,26.17
2018-02-04T21:31:08.942Z,29.67
2018-02-04T21:33:37.290Z,28.87
2018-02-04T21:36:05.583Z,32.23
2018-02-04T21:38:34.686Z,30.47
2018-02-04T21:41:03.764Z,31.00
2018-02-04T21:43:31.932Z,29.60
2018-02-04T21:46:00.268Z,30.57
2018-02-04T21:48:28.600Z,29.27
2018-02-04T21:50:56.840Z,31.67
2018-02-04T21:53:25.159Z,30.63
2018-02-04T21:55:53.448Z,32.03
2018-02-04T21:58:22.515Z,31.77
2018-02-04T22:00:50.887Z,29.37
2018-02-04T22:03:19.294Z,31.97
2018-02-04T22:05:47.562Z,30.73
2018-02-04T22:08:15.816Z,31.53
2018-02-04T22:10:45.585Z,31.23
2018-02-04T22:13:14.645Z,33.13
2018-02-04T22:15:43.015Z,32.57
2018-02-04T22:18:11.337Z,28.40
2018-02-04T22:20:39.528Z,29.00
2018-02-04T22:23:07.804Z,31.20
2018-02-04T22:25:38.020Z,29.17
2018-02-04T22:28:06.544Z,31.73
2018-02-04T22:30:34.792Z,29.93
2018-02-04T22:33:03.147Z,32.97
2018-02-04T22:35:32.305Z,31.13
2018-02-04T22:38:00.540Z,30.13
2018-02-04T22:40:28.821Z,32.00
2018-02-04T22:42:57.104Z,30.77
2018-02-04T22:45:25.320Z,31.30
2018-02-04T22:47:53.562Z,31.20
2018-02-04T22:50:21.819Z,31.53
2018-02-04T22:52:50.120Z,28.97
2018-02-04T22:55:18.444Z,28.07
2018-02-04T22:57:46.706Z,29.63
2018-02-04T23:00:15.036Z,29.67
2018-02-04T23:02:43.346Z,30.37
2018-02-04T23:05:11.606Z,28.60
2018-02-04T23:07:39.826Z,30.00
2018-02-04T23:10:08.180Z,29.43
2018-02-04T23:12:36.381Z,28.73
2018-02-04T23:15:04.713Z,27.90
2018-02-04T23:17:33.053Z,30.17
2018-02-04T23:20:02.089Z,28.53
2018-02-04T23:22:30.296Z,30.27
2018-02-04T23:24:58.612Z,29.93
2018-02-04T23:27:26.936Z,28.37
2018-02-04T23:29:55.141Z,27.97
2018-02-04T23:32:23.420Z,29.27
2018-02-04T23:34:52.578Z,30.23
2018-02-04T23:37:21.902Z,29.13
2018-02-04T23:39:50.240Z,30.23
2018-02-04T23:42:18.622Z,30.33
2018-02-04T23:44:46.855Z,28.97
2018-02-04T23:47:15.904Z,29.97
2018-02-04T23:49:44.388Z,28.40
2018-02-04T23:52:12.608Z,29.80
2018-02-04T23:54:41.693Z,28.23
2018-02-04T23:57:09.870Z,28.40
2018-02-04T23:59:38.870Z,29.17
